sensor_id;sensor_type;location;lat;lon;timestamp;pressure;altitude;pressure_sealevel;temperature;humidity
56671;BME280;42545;50.054;8.306;2023-09-08T00:01:16;100157.84;;;19.55;68.38
56671;BME280;42545;50.054;8.306;2023-09-08T00:03:43;100155.94;;;19.58;68.19
56671;BME280;42545;50.054;8.306;2023-09-08T00:06:10;100149.69;;;19.61;67.76
56671;BME280;42545;50.054;8.306;2023-09-08T00:08:36;100153.19;;;19.63;67.55
56671;BME280;42545;50.054;8.306;2023-09-08T00:11:03;100147.88;;;19.62;67.65
56671;BME280;42545;50.054;8.306;2023-09-08T00:13:33;100144.31;;;19.61;68.01
56671;BME280;42545;50.054;8.306;2023-09-08T00:16:00;100147.97;;;19.57;67.76
56671;BME280;42545;50.054;8.306;2023-09-08T00:18:27;100148.00;;;19.55;67.87
56671;BME280;42545;50.054;8.306;2023-09-08T00:20:54;100153.38;;;19.54;67.75
56671;BME280;42545;50.054;8.306;2023-09-08T00:23:21;100148.09;;;19.49;68.25
56671;BME280;42545;50.054;8.306;2023-09-08T00:25:48;100147.28;;;19.46;69.09
56671;BME280;42545;50.054;8.306;2023-09-08T00:28:15;100148.28;;;19.40;69.53
56671;BME280;42545;50.054;8.306;2023-09-08T00:30:43;100147.53;;;19.33;70.27
56671;BME280;42545;50.054;8.306;2023-09-08T00:33:10;100150.28;;;19.27;71.07
56671;BME280;42545;50.054;8.306;2023-09-08T00:35:38;100143.28;;;19.20;71.76
56671;BME280;42545;50.054;8.306;2023-09-08T00:38:05;100143.47;;;19.09;72.57
56671;BME280;42545;50.054;8.306;2023-09-08T00:40:32;100145.47;;;18.96;73.44
56671;BME280;42545;50.054;8.306;2023-09-08T00:42:59;100139.44;;;18.83;73.54
56671;BME280;42545;50.054;8.306;2023-09-08T00:45:28;100146.59;;;18.81;72.92
56671;BME280;42545;50.054;8.306;2023-09-08T00:47:57;100141.22;;;18.83;72.55
56671;BME280;42545;50.054;8.306;2023-09-08T00:50:24;100141.22;;;18.85;72.56
56671;BME280;42545;50.054;8.306;2023-09-08T00:52:51;100135.00;;;18.84;71.88
56671;BME280;42545;50.054;8.306;2023-09-08T00:55:18;100140.25;;;18.87;71.29
56671;BME280;42545;50.054;8.306;2023-09-08T00:57:45;100140.22;;;18.90;70.92
56671;BME280;42545;50.054;8.306;2023-09-08T01:00:13;100140.19;;;18.93;70.62
56671;BME280;42545;50.054;8.306;2023-09-08T01:02:40;100141.03;;;18.95;70.30
56671;BME280;42545;50.054;8.306;2023-09-08T01:05:11;100140.19;;;18.93;70.28
56671;BME280;42545;50.054;8.306;2023-09-08T01:07:40;100143.78;;;18.91;69.84
56671;BME280;42545;50.054;8.306;2023-09-08T01:10:08;100139.34;;;18.90;70.12
56671;BME280;42545;50.054;8.306;2023-09-08T01:12:35;100141.16;;;18.89;70.20
56671;BME280;42545;50.054;8.306;2023-09-08T01:15:02;100146.53;;;18.86;70.31
56671;BME280;42545;50.054;8.306;2023-09-08T01:17:29;100150.19;;;18.82;70.63
56671;BME280;42545;50.054;8.306;2023-09-08T01:19:58;100149.34;;;18.75;71.17
56671;BME280;42545;50.054;8.306;2023-09-08T01:25:26;100141.69;;;18.51;72.16
56671;BME280;42545;50.054;8.306;2023-09-08T01:27:56;100149.88;;;18.40;72.83
56671;BME280;42545;50.054;8.306;2023-09-08T01:30:28;100149.22;;;18.24;73.35
56671;BME280;42545;50.054;8.306;2023-09-08T01:32:58;100147.66;;;18.06;74.35
56671;BME280;42545;50.054;8.306;2023-09-08T01:35:25;100154.94;;;17.92;75.18
56671;BME280;42545;50.054;8.306;2023-09-08T01:37:54;100150.63;;;17.78;76.07
56671;BME280;42545;50.054;8.306;2023-09-08T01:40:21;100154.38;;;17.63;76.74
56671;BME280;42545;50.054;8.306;2023-09-08T01:42:50;100146.50;;;17.49;77.85
56671;BME280;42545;50.054;8.306;2023-09-08T01:45:16;100142.19;;;17.38;78.70
56671;BME280;42545;50.054;8.306;2023-09-08T01:47:44;100143.19;;;17.26;79.20
56671;BME280;42545;50.054;8.306;2023-09-08T01:50:10;100152.16;;;17.16;80.08
56671;BME280;42545;50.054;8.306;2023-09-08T01:52:37;100149.59;;;17.05;80.34
56671;BME280;42545;50.054;8.306;2023-09-08T01:55:04;100148.78;;;16.97;80.73
56671;BME280;42545;50.054;8.306;2023-09-08T01:57:32;100143.50;;;16.90;80.87
56671;BME280;42545;50.054;8.306;2023-09-08T02:00:01;100147.97;;;16.84;81.51
56671;BME280;42545;50.054;8.306;2023-09-08T02:02:27;100148.88;;;16.78;81.58
56671;BME280;42545;50.054;8.306;2023-09-08T02:04:54;100149.81;;;16.71;82.21
56671;BME280;42545;50.054;8.306;2023-09-08T02:07:21;100146.28;;;16.67;82.33
56671;BME280;42545;50.054;8.306;2023-09-08T02:09:48;100142.75;;;16.65;82.68
56671;BME280;42545;50.054;8.306;2023-09-08T02:12:14;100144.56;;;16.63;82.75
56671;BME280;42545;50.054;8.306;2023-09-08T02:14:42;100147.22;;;16.63;82.90
56671;BME280;42545;50.054;8.306;2023-09-08T02:17:10;100143.66;;;16.64;83.04
56671;BME280;42545;50.054;8.306;2023-09-08T02:19:37;100135.66;;;16.63;83.12
56671;BME280;42545;50.054;8.306;2023-09-08T02:22:03;100137.50;;;16.58;83.26
56671;BME280;42545;50.054;8.306;2023-09-08T02:24:30;100143.69;;;16.58;83.28
56671;BME280;42545;50.054;8.306;2023-09-08T02:26:57;100139.31;;;16.51;83.58
56671;BME280;42545;50.054;8.306;2023-09-08T02:29:25;100148.22;;;16.48;83.89
56671;BME280;42545;50.054;8.306;2023-09-08T02:31:52;100142.03;;;16.42;84.56
56671;BME280;42545;50.054;8.306;2023-09-08T02:34:20;100149.16;;;16.38;85.01
56671;BME280;42545;50.054;8.306;2023-09-08T02:36:47;100144.75;;;16.32;85.10
56671;BME280;42545;50.054;8.306;2023-09-08T02:39:16;100137.63;;;16.30;85.28
56671;BME280;42545;50.054;8.306;2023-09-08T02:41:43;100139.47;;;16.22;85.40
56671;BME280;42545;50.054;8.306;2023-09-08T02:44:10;100140.41;;;16.18;85.82
56671;BME280;42545;50.054;8.306;2023-09-08T02:46:39;100147.50;;;16.14;86.41
56671;BME280;42545;50.054;8.306;2023-09-08T02:49:05;100143.09;;;16.10;86.67
56671;BME280;42545;50.054;8.306;2023-09-08T02:51:35;100141.31;;;16.06;86.93
56671;BME280;42545;50.054;8.306;2023-09-08T02:54:02;100147.56;;;16.02;87.21
56671;BME280;42545;50.054;8.306;2023-09-08T02:56:31;100143.16;;;15.96;87.54
56671;BME280;42545;50.054;8.306;2023-09-08T02:58:58;100142.28;;;15.91;87.82
56671;BME280;42545;50.054;8.306;2023-09-08T03:01:24;100144.06;;;15.87;87.94
56671;BME280;42545;50.054;8.306;2023-09-08T03:03:51;100151.19;;;15.81;88.15
56671;BME280;42545;50.054;8.306;2023-09-08T03:06:19;100141.44;;;15.73;88.29
56671;BME280;42545;50.054;8.306;2023-09-08T03:08:50;100149.41;;;15.67;88.47
56671;BME280;42545;50.054;8.306;2023-09-08T03:11:17;100154.75;;;15.64;88.89
56671;BME280;42545;50.054;8.306;2023-09-08T03:13:44;100155.66;;;15.62;89.37
56671;BME280;42545;50.054;8.306;2023-09-08T03:16:11;100148.56;;;15.61;89.62
56671;BME280;42545;50.054;8.306;2023-09-08T03:18:38;100143.25;;;15.56;90.04
56671;BME280;42545;50.054;8.306;2023-09-08T03:21:06;100144.16;;;15.53;90.24
56671;BME280;42545;50.054;8.306;2023-09-08T03:23:36;100151.25;;;15.50;90.52
56671;BME280;42545;50.054;8.306;2023-09-08T03:26:06;100144.19;;;15.43;90.72
56671;BME280;42545;50.054;8.306;2023-09-08T03:28:34;100148.59;;;15.45;91.04
56671;BME280;42545;50.054;8.306;2023-09-08T03:31:01;100133.53;;;15.35;91.28
56671;BME280;42545;50.054;8.306;2023-09-08T03:33:28;100148.63;;;15.37;91.03
56671;BME280;42545;50.054;8.306;2023-09-08T03:35:55;100147.72;;;15.35;91.48
56671;BME280;42545;50.054;8.306;2023-09-08T03:38:22;100151.25;;;15.31;91.67
56671;BME280;42545;50.054;8.306;2023-09-08T03:40:49;100144.19;;;15.26;91.93
56671;BME280;42545;50.054;8.306;2023-09-08T03:43:18;100144.19;;;15.26;92.47
56671;BME280;42545;50.054;8.306;2023-09-08T03:45:46;100138.88;;;15.19;92.59
56671;BME280;42545;50.054;8.306;2023-09-08T03:48:13;100144.19;;;15.19;92.82
56671;BME280;42545;50.054;8.306;2023-09-08T03:50:40;100145.09;;;15.17;93.36
56671;BME280;42545;50.054;8.306;2023-09-08T03:53:11;100146.84;;;15.16;93.56
56671;BME280;42545;50.054;8.306;2023-09-08T03:55:38;100141.56;;;15.12;93.58
56671;BME280;42545;50.054;8.306;2023-09-08T03:58:05;100146.88;;;15.10;93.97
56671;BME280;42545;50.054;8.306;2023-09-08T04:00:33;100146.88;;;15.09;94.12
56671;BME280;42545;50.054;8.306;2023-09-08T04:03:00;100145.97;;;15.05;94.06
56671;BME280;42545;50.054;8.306;2023-09-08T04:05:27;100154.84;;;15.03;94.22
56671;BME280;42545;50.054;8.306;2023-09-08T04:07:54;100152.19;;;14.99;94.34
56671;BME280;42545;50.054;8.306;2023-09-08T04:10:21;100150.44;;;14.95;94.45
56671;BME280;42545;50.054;8.306;2023-09-08T04:12:47;100147.75;;;14.91;94.37
56671;BME280;42545;50.054;8.306;2023-09-08T04:15:14;100154.84;;;14.87;94.63
56671;BME280;42545;50.054;8.306;2023-09-08T04:17:42;100161.03;;;14.85;94.78
56671;BME280;42545;50.054;8.306;2023-09-08T04:20:09;100153.94;;;14.82;94.98
56671;BME280;42545;50.054;8.306;2023-09-08T04:22:36;100156.59;;;14.82;95.13
56671;BME280;42545;50.054;8.306;2023-09-08T04:25:05;100162.81;;;14.81;94.78
56671;BME280;42545;50.054;8.306;2023-09-08T04:27:32;100163.69;;;14.80;95.19
56671;BME280;42545;50.054;8.306;2023-09-08T04:30:02;100163.72;;;14.78;95.16
56671;BME280;42545;50.054;8.306;2023-09-08T04:32:29;100146.84;;;14.67;95.02
56671;BME280;42545;50.054;8.306;2023-09-08T04:34:59;100162.81;;;14.72;95.15
56671;BME280;42545;50.054;8.306;2023-09-08T04:37:26;100166.31;;;14.69;95.27
56671;BME280;42545;50.054;8.306;2023-09-08T04:39:53;100160.13;;;14.66;95.67
56671;BME280;42545;50.054;8.306;2023-09-08T04:42:19;100169.00;;;14.66;95.90
56671;BME280;42545;50.054;8.306;2023-09-08T04:44:51;100170.78;;;14.64;96.20
56671;BME280;42545;50.054;8.306;2023-09-08T04:47:17;100164.56;;;14.62;96.23
56671;BME280;42545;50.054;8.306;2023-09-08T04:49:44;100153.88;;;14.54;96.33
56671;BME280;42545;50.054;8.306;2023-09-08T04:52:13;100167.16;;;14.54;96.17
56671;BME280;42545;50.054;8.306;2023-09-08T04:54:40;100165.38;;;14.50;96.46
56671;BME280;42545;50.054;8.306;2023-09-08T04:57:06;100168.91;;;14.49;96.23
56671;BME280;42545;50.054;8.306;2023-09-08T04:59:33;100169.78;;;14.45;96.33
56671;BME280;42545;50.054;8.306;2023-09-08T05:02:02;100169.81;;;14.40;96.82
56671;BME280;42545;50.054;8.306;2023-09-08T05:04:29;100175.09;;;14.40;96.84
56671;BME280;42545;50.054;8.306;2023-09-08T05:06:57;100174.22;;;14.38;96.72
56671;BME280;42545;50.054;8.306;2023-09-08T05:09:25;100181.25;;;14.36;96.90
56671;BME280;42545;50.054;8.306;2023-09-08T05:11:52;100183.03;;;14.36;97.24
56671;BME280;42545;50.054;8.306;2023-09-08T05:14:19;100183.03;;;14.34;97.56
56671;BME280;42545;50.054;8.306;2023-09-08T05:16:46;100182.16;;;14.35;97.77
56671;BME280;42545;50.054;8.306;2023-09-08T05:19:20;100189.25;;;14.38;98.26
56671;BME280;42545;50.054;8.306;2023-09-08T05:21:50;100180.41;;;14.37;98.36
56671;BME280;42545;50.054;8.306;2023-09-08T05:24:16;100177.75;;;14.39;98.69
56671;BME280;42545;50.054;8.306;2023-09-08T05:26:47;100183.09;;;14.42;99.13
56671;BME280;42545;50.054;8.306;2023-09-08T05:29:14;100183.06;;;14.43;99.42
56671;BME280;42545;50.054;8.306;2023-09-08T05:31:41;100186.63;;;14.50;100.00
56671;BME280;42545;50.054;8.306;2023-09-08T05:34:08;100192.84;;;14.55;100.00
56671;BME280;42545;50.054;8.306;2023-09-08T05:36:35;100189.34;;;14.59;100.00
56671;BME280;42545;50.054;8.306;2023-09-08T05:39:03;100191.09;;;14.64;100.00
56671;BME280;42545;50.054;8.306;2023-09-08T05:41:31;100192.00;;;14.66;100.00
56671;BME280;42545;50.054;8.306;2023-09-08T05:44:00;100189.34;;;14.69;100.00
56671;BME280;42545;50.054;8.306;2023-09-08T05:46:27;100196.47;;;14.71;100.00
56671;BME280;42545;50.054;8.306;2023-09-08T05:48:54;100195.56;;;14.77;100.00
56671;BME280;42545;50.054;8.306;2023-09-08T05:51:21;100198.22;;;14.82;100.00
56671;BME280;42545;50.054;8.306;2023-09-08T05:53:48;100205.31;;;14.90;100.00
56671;BME280;42545;50.054;8.306;2023-09-08T05:56:18;100208.00;;;15.01;100.00
56671;BME280;42545;50.054;8.306;2023-09-08T05:58:45;100205.31;;;15.15;100.00
56671;BME280;42545;50.054;8.306;2023-09-08T06:01:15;100201.78;;;15.31;100.00
56671;BME280;42545;50.054;8.306;2023-09-08T06:03:41;100203.53;;;15.49;100.00
56671;BME280;42545;50.054;8.306;2023-09-08T06:06:08;100206.19;;;15.77;99.92
56671;BME280;42545;50.054;8.306;2023-09-08T06:08:35;100188.41;;;15.93;98.19
56671;BME280;42545;50.054;8.306;2023-09-08T06:11:01;100189.19;;;16.20;97.18
56671;BME280;42545;50.054;8.306;2023-09-08T06:13:28;100194.41;;;16.43;95.77
56671;BME280;42545;50.054;8.306;2023-09-08T06:15:55;100197.84;;;16.62;94.17
56671;BME280;42545;50.054;8.306;2023-09-08T06:18:23;100184.41;;;16.79;93.05
56671;BME280;42545;50.054;8.306;2023-09-08T06:20:52;100192.28;;;16.97;91.88
56671;BME280;42545;50.054;8.306;2023-09-08T06:23:21;100193.06;;;17.15;90.50
56671;BME280;42545;50.054;8.306;2023-09-08T06:25:48;100186.69;;;17.29;89.11
56671;BME280;42545;50.054;8.306;2023-09-08T06:28:16;100188.34;;;17.43;87.86
56671;BME280;42545;50.054;8.306;2023-09-08T06:30:42;100190.81;;;17.61;86.86
56671;BME280;42545;50.054;8.306;2023-09-08T06:33:09;100193.34;;;17.75;86.27
56671;BME280;42545;50.054;8.306;2023-09-08T06:35:37;100193.25;;;17.84;85.41
56671;BME280;42545;50.054;8.306;2023-09-08T06:38:04;100197.56;;;17.98;84.63
56671;BME280;42545;50.054;8.306;2023-09-08T06:40:30;100197.50;;;18.05;83.98
56671;BME280;42545;50.054;8.306;2023-09-08T06:42:57;100196.47;;;18.16;83.60
56671;BME280;42545;50.054;8.306;2023-09-08T06:45:24;100196.41;;;18.22;82.85
56671;BME280;42545;50.054;8.306;2023-09-08T06:47:51;100196.31;;;18.31;82.53
56671;BME280;42545;50.054;8.306;2023-09-08T06:50:20;100198.84;;;18.40;81.75
56671;BME280;42545;50.054;8.306;2023-09-08T06:52:48;100206.75;;;18.48;81.50
56671;BME280;42545;50.054;8.306;2023-09-08T06:55:15;100196.88;;;18.55;81.42
56671;BME280;42545;50.054;8.306;2023-09-08T06:57:42;100204.75;;;18.64;81.61
56671;BME280;42545;50.054;8.306;2023-09-08T07:00:09;100207.31;;;18.72;81.64
56671;BME280;42545;50.054;8.306;2023-09-08T07:02:37;100195.63;;;18.79;81.26
56671;BME280;42545;50.054;8.306;2023-09-08T07:05:04;100198.19;;;18.88;81.05
56671;BME280;42545;50.054;8.306;2023-09-08T07:07:33;100201.59;;;18.98;81.12
56671;BME280;42545;50.054;8.306;2023-09-08T07:10:03;100198.84;;;19.02;80.40
56671;BME280;42545;50.054;8.306;2023-09-08T07:12:32;100197.84;;;19.11;79.98
56671;BME280;42545;50.054;8.306;2023-09-08T07:15:02;100204.78;;;19.20;79.93
56671;BME280;42545;50.054;8.306;2023-09-08T07:17:31;100198.41;;;19.30;79.46
56671;BME280;42545;50.054;8.306;2023-09-08T07:19:59;100194.72;;;19.36;78.52
56671;BME280;42545;50.054;8.306;2023-09-08T07:22:26;100199.91;;;19.45;77.48
56671;BME280;42545;50.054;8.306;2023-09-08T07:24:52;100200.66;;;19.55;77.22
56671;BME280;42545;50.054;8.306;2023-09-08T07:27:21;100198.72;;;19.62;76.57
56671;BME280;42545;50.054;8.306;2023-09-08T07:29:47;100202.16;;;19.70;76.74
56671;BME280;42545;50.054;8.306;2023-09-08T07:32:15;100194.00;;;19.77;75.79
56671;BME280;42545;50.054;8.306;2023-09-08T07:34:41;100201.88;;;19.85;75.82
56671;BME280;42545;50.054;8.306;2023-09-08T07:37:08;100210.69;;;19.92;74.82
56671;BME280;42545;50.054;8.306;2023-09-08T07:39:35;100215.88;;;20.01;74.61
56671;BME280;42545;50.054;8.306;2023-09-08T07:42:02;100208.56;;;20.08;74.40
56671;BME280;42545;50.054;8.306;2023-09-08T07:44:31;100211.09;;;20.17;73.69
56671;BME280;42545;50.054;8.306;2023-09-08T07:46:58;100217.16;;;20.25;73.25
56671;BME280;42545;50.054;8.306;2023-09-08T07:49:24;100213.41;;;20.34;73.00
56671;BME280;42545;50.054;8.306;2023-09-08T07:51:51;100215.94;;;20.40;72.00
56671;BME280;42545;50.054;8.306;2023-09-08T07:54:18;100215.84;;;20.45;71.67
56671;BME280;42545;50.054;8.306;2023-09-08T07:56:45;100208.53;;;20.51;71.81
56671;BME280;42545;50.054;8.306;2023-09-08T07:59:13;100215.47;;;20.63;71.38
56671;BME280;42545;50.054;8.306;2023-09-08T08:01:41;100216.13;;;20.74;71.23
56671;BME280;42545;50.054;8.306;2023-09-08T08:04:07;100219.47;;;20.84;71.25
56671;BME280;42545;50.054;8.306;2023-09-08T08:06:34;100216.56;;;20.93;71.80
56671;BME280;42545;50.054;8.306;2023-09-08T08:09:01;100219.09;;;21.01;70.08
56671;BME280;42545;50.054;8.306;2023-09-08T08:11:28;100224.47;;;21.00;69.05
56671;BME280;42545;50.054;8.306;2023-09-08T08:13:54;100227.09;;;21.03;69.07
56671;BME280;42545;50.054;8.306;2023-09-08T08:16:22;100218.97;;;21.04;69.44
56671;BME280;42545;50.054;8.306;2023-09-08T08:18:51;100222.31;;;21.16;69.70
56671;BME280;42545;50.054;8.306;2023-09-08T08:21:17;100215.00;;;21.21;68.64
56671;BME280;42545;50.054;8.306;2023-09-08T08:23:44;100226.50;;;21.26;68.37
56671;BME280;42545;50.054;8.306;2023-09-08T08:26:11;100215.75;;;21.27;68.21
56671;BME280;42545;50.054;8.306;2023-09-08T08:28:39;100213.00;;;21.30;68.76
56671;BME280;42545;50.054;8.306;2023-09-08T08:31:06;100214.47;;;21.42;68.50
56671;BME280;42545;50.054;8.306;2023-09-08T08:33:33;100218.72;;;21.53;68.01
56671;BME280;42545;50.054;8.306;2023-09-08T08:36:01;100216.69;;;21.61;68.42
56671;BME280;42545;50.054;8.306;2023-09-08T08:38:28;100216.59;;;21.65;67.88
56671;BME280;42545;50.054;8.306;2023-09-08T08:41:02;100222.63;;;21.74;68.01
56671;BME280;42545;50.054;8.306;2023-09-08T08:43:32;100209.94;;;21.80;67.77
56671;BME280;42545;50.054;8.306;2023-09-08T08:45:59;100202.53;;;21.88;66.74
56671;BME280;42545;50.054;8.306;2023-09-08T08:48:27;100205.00;;;21.96;66.82
56671;BME280;42545;50.054;8.306;2023-09-08T08:50:56;100212.88;;;22.02;66.12
56671;BME280;42545;50.054;8.306;2023-09-08T08:53:27;100210.91;;;22.09;66.28
56671;BME280;42545;50.054;8.306;2023-09-08T08:55:56;100215.16;;;22.18;65.39
56671;BME280;42545;50.054;8.306;2023-09-08T08:58:25;100206.84;;;22.27;65.78
56671;BME280;42545;50.054;8.306;2023-09-08T09:00:53;100208.56;;;22.30;65.37
56671;BME280;42545;50.054;8.306;2023-09-08T09:03:23;100201.06;;;22.41;65.42
56671;BME280;42545;50.054;8.306;2023-09-08T09:05:51;100195.59;;;22.44;64.50
56671;BME280;42545;50.054;8.306;2023-09-08T09:08:18;100198.03;;;22.52;64.37
56671;BME280;42545;50.054;8.306;2023-09-08T09:10:48;100201.50;;;22.55;63.74
56671;BME280;42545;50.054;8.306;2023-09-08T09:13:15;100204.16;;;22.57;64.26
56671;BME280;42545;50.054;8.306;2023-09-08T09:15:42;100201.38;;;22.60;62.77
56671;BME280;42545;50.054;8.306;2023-09-08T09:18:09;100202.09;;;22.65;63.73
56671;BME280;42545;50.054;8.306;2023-09-08T09:20:36;100202.84;;;22.70;62.90
56671;BME280;42545;50.054;8.306;2023-09-08T09:23:03;100201.81;;;22.74;62.85
56671;BME280;42545;50.054;8.306;2023-09-08T09:25:31;100212.25;;;22.85;63.27
56671;BME280;42545;50.054;8.306;2023-09-08T09:28:03;100208.19;;;23.00;62.92
56671;BME280;42545;50.054;8.306;2023-09-08T09:30:46;100210.53;;;23.11;62.27
56671;BME280;42545;50.054;8.306;2023-09-08T09:33:14;100202.06;;;23.23;61.59
56671;BME280;42545;50.054;8.306;2023-09-08T09:35:42;100198.28;;;23.29;62.08
56671;BME280;42545;50.054;8.306;2023-09-08T09:38:09;100208.69;;;23.39;61.35
56671;BME280;42545;50.054;8.306;2023-09-08T09:40:37;100204.41;;;23.60;60.58
56671;BME280;42545;50.054;8.306;2023-09-08T09:43:06;100201.19;;;23.74;61.23
56671;BME280;42545;50.054;8.306;2023-09-08T09:45:33;100200.13;;;23.80;60.32
56671;BME280;42545;50.054;8.306;2023-09-08T09:48:02;100190.13;;;23.84;59.79
56671;BME280;42545;50.054;8.306;2023-09-08T09:50:29;100199.16;;;23.83;60.74
56671;BME280;42545;50.054;8.306;2023-09-08T09:52:59;100198.97;;;23.87;60.65
56671;BME280;42545;50.054;8.306;2023-09-08T09:55:26;100198.72;;;23.95;60.31
56671;BME280;42545;50.054;8.306;2023-09-08T09:57:56;100191.22;;;24.03;60.20
56671;BME280;42545;50.054;8.306;2023-09-08T10:00:27;100193.75;;;24.08;59.30
56671;BME280;42545;50.054;8.306;2023-09-08T10:02:55;100189.19;;;24.10;59.00
56671;BME280;42545;50.054;8.306;2023-09-08T10:05:23;100181.81;;;24.15;58.92
56671;BME280;42545;50.054;8.306;2023-09-08T10:07:50;100172.88;;;24.13;59.17
56671;BME280;42545;50.054;8.306;2023-09-08T10:10:18;100179.56;;;24.26;59.39
56671;BME280;42545;50.054;8.306;2023-09-08T10:12:49;100176.63;;;24.32;58.94
56671;BME280;42545;50.054;8.306;2023-09-08T10:15:21;100178.09;;;24.41;57.03
56671;BME280;42545;50.054;8.306;2023-09-08T10:17:53;100170.31;;;24.33;57.38
56671;BME280;42545;50.054;8.306;2023-09-08T10:20:22;100164.91;;;24.33;57.58
56671;BME280;42545;50.054;8.306;2023-09-08T10:22:52;100177.44;;;24.34;57.82
56671;BME280;42545;50.054;8.306;2023-09-08T10:25:20;100170.00;;;24.41;56.87
56671;BME280;42545;50.054;8.306;2023-09-08T10:27:47;100176.97;;;24.47;56.88
56671;BME280;42545;50.054;8.306;2023-09-08T10:30:15;100168.44;;;24.59;57.02
56671;BME280;42545;50.054;8.306;2023-09-08T10:32:43;100164.47;;;24.68;56.45
56671;BME280;42545;50.054;8.306;2023-09-08T10:35:13;100160.66;;;24.73;56.18
56671;BME280;42545;50.054;8.306;2023-09-08T10:37:39;100170.94;;;24.86;55.94
56671;BME280;42545;50.054;8.306;2023-09-08T10:40:21;100158.72;;;24.99;55.18
56671;BME280;42545;50.054;8.306;2023-09-08T10:42:49;100165.13;;;25.17;54.72
56671;BME280;42545;50.054;8.306;2023-09-08T10:45:32;100161.63;;;25.15;54.17
56671;BME280;42545;50.054;8.306;2023-09-08T10:48:00;100151.63;;;25.17;54.84
56671;BME280;42545;50.054;8.306;2023-09-08T10:50:32;100152.31;;;25.22;55.39
56671;BME280;42545;50.054;8.306;2023-09-08T10:53:13;100148.47;;;25.29;54.25
56671;BME280;42545;50.054;8.306;2023-09-08T10:55:41;100148.34;;;25.32;52.67
56671;BME280;42545;50.054;8.306;2023-09-08T10:58:17;100155.41;;;25.35;53.31
56671;BME280;42545;50.054;8.306;2023-09-08T11:00:46;100149.81;;;25.40;53.80
56671;BME280;42545;50.054;8.306;2023-09-08T11:03:14;100154.03;;;25.47;53.87
56671;BME280;42545;50.054;8.306;2023-09-08T11:05:53;100148.75;;;25.44;53.55
56671;BME280;42545;50.054;8.306;2023-09-08T11:08:20;100156.84;;;25.44;54.32
56671;BME280;42545;50.054;8.306;2023-09-08T11:10:46;100139.69;;;25.45;53.46
56671;BME280;42545;50.054;8.306;2023-09-08T11:13:13;100137.66;;;25.50;53.54
56671;BME280;42545;50.054;8.306;2023-09-08T11:15:39;100141.94;;;25.56;52.50
56671;BME280;42545;50.054;8.306;2023-09-08T11:18:06;100137.72;;;25.69;53.22
56671;BME280;42545;50.054;8.306;2023-09-08T11:20:34;100128.53;;;25.73;52.22
56671;BME280;42545;50.054;8.306;2023-09-08T11:23:03;100132.78;;;25.79;51.98
56671;BME280;42545;50.054;8.306;2023-09-08T11:25:31;100130.44;;;25.90;51.75
56671;BME280;42545;50.054;8.306;2023-09-08T11:27:58;100132.94;;;25.96;51.01
56671;BME280;42545;50.054;8.306;2023-09-08T11:30:26;100132.94;;;25.96;51.17
56671;BME280;42545;50.054;8.306;2023-09-08T11:32:53;100139.56;;;26.08;50.44
56671;BME280;42545;50.054;8.306;2023-09-08T11:35:21;100132.94;;;26.15;50.59
56671;BME280;42545;50.054;8.306;2023-09-08T11:37:47;100138.88;;;26.23;49.88
56671;BME280;42545;50.054;8.306;2023-09-08T11:40:20;100125.06;;;26.30;49.37
56671;BME280;42545;50.054;8.306;2023-09-08T11:42:47;100125.66;;;26.36;50.09
56671;BME280;42545;50.054;8.306;2023-09-08T11:45:16;100132.84;;;26.36;49.30
56671;BME280;42545;50.054;8.306;2023-09-08T11:47:46;100127.31;;;26.39;49.59
56671;BME280;42545;50.054;8.306;2023-09-08T11:50:14;100133.00;;;26.52;50.03
56671;BME280;42545;50.054;8.306;2023-09-08T11:52:44;100128.25;;;26.57;49.58
56671;BME280;42545;50.054;8.306;2023-09-08T11:55:11;100127.91;;;26.64;49.00
56671;BME280;42545;50.054;8.306;2023-09-08T11:57:45;100126.72;;;26.70;48.81
56671;BME280;42545;50.054;8.306;2023-09-08T12:00:14;100131.94;;;26.75;48.55
56671;BME280;42545;50.054;8.306;2023-09-08T12:02:43;100127.31;;;26.77;48.43
56671;BME280;42545;50.054;8.306;2023-09-08T12:05:12;100135.50;;;26.75;48.57
56671;BME280;42545;50.054;8.306;2023-09-08T12:07:40;100132.72;;;26.77;48.27
56671;BME280;42545;50.054;8.306;2023-09-08T12:10:09;100128.75;;;26.84;48.71
56671;BME280;42545;50.054;8.306;2023-09-08T12:12:45;100133.13;;;26.87;47.30
56671;BME280;42545;50.054;8.306;2023-09-08T12:15:12;100125.47;;;26.77;47.79
56671;BME280;42545;50.054;8.306;2023-09-08T12:17:55;100131.06;;;26.74;48.75
56671;BME280;42545;50.054;8.306;2023-09-08T12:20:23;100125.72;;;26.73;48.34
56671;BME280;42545;50.054;8.306;2023-09-08T12:22:51;100122.03;;;26.74;48.26
56671;BME280;42545;50.054;8.306;2023-09-08T12:25:18;100116.06;;;26.67;47.37
56671;BME280;42545;50.054;8.306;2023-09-08T12:27:49;100106.75;;;26.73;47.53
56671;BME280;42545;50.054;8.306;2023-09-08T12:30:17;100112.38;;;26.87;47.46
56671;BME280;42545;50.054;8.306;2023-09-08T12:32:46;100111.97;;;26.95;47.46
56671;BME280;42545;50.054;8.306;2023-09-08T12:35:20;100118.66;;;27.05;47.49
56671;BME280;42545;50.054;8.306;2023-09-08T12:37:56;100109.09;;;26.98;46.65
56671;BME280;42545;50.054;8.306;2023-09-08T12:40:24;100112.69;;;26.98;47.50
56671;BME280;42545;50.054;8.306;2023-09-08T12:42:53;100106.09;;;27.04;47.86
56671;BME280;42545;50.054;8.306;2023-09-08T12:45:21;100111.34;;;27.07;47.51
56671;BME280;42545;50.054;8.306;2023-09-08T12:47:49;100112.38;;;27.04;46.79
56671;BME280;42545;50.054;8.306;2023-09-08T12:50:17;100109.00;;;26.99;46.34
56671;BME280;42545;50.054;8.306;2023-09-08T12:52:44;100101.53;;;27.04;47.63
56671;BME280;42545;50.054;8.306;2023-09-08T12:55:11;100108.78;;;27.04;47.34
56671;BME280;42545;50.054;8.306;2023-09-08T12:57:38;100105.03;;;27.07;48.10